Terminal Aerodrome Forecast
Issued by NWS

Home | Current Version | Previous Version | Graphics & Text | Print | Product List | Glossary On
Versions: 1 2 3 4 5 6 7 8 9 10 11 12 13 14
000
FTUS43 KGRB 281731
TAFCWA
TAF
KCWA 281731Z 2818/2918 17016G24KT P6SM VCSH BKN013 OVC035
     FM282100 18016G25KT P6SM VCSH SCT013 BKN035
      TEMPO 2823/2903 5SM TSRA BKN020CB
     FM290400 18009KT 6SM BR VCSH BKN015 BKN050
     FM290800 20005KT 3SM BR BKN006
     FM291300 24009KT 5SM BR SCT006 OVC012
      TEMPO 2915/2918 3SM -SHRA OVC008=

USA.gov is the U.S. government's official web portal to all federal, state and local government web resources and services.